Time;durP1;ratioP1;P1;durP2;ratioP2;P2;SDS_P1;SDS_P2;PMS_P1;PMS_P2;Temp;Humidity;BMP_temperature;BMP_pressure;BME280_temperature;BME280_humidity;BME280_pressure;Samples;Min_cycle;Max_cycle;Signal;HPM_P1;HPM_P2
2021/12/30 00:01:11;;;;;;;;;;;;;;;5.04;63.36;99255.66;6352629;22;1342;-96
2021/12/30 00:03:39;;;;;;;;;;;;;;;5.08;63.34;99262.19;6355835;22;1246;-96
2021/12/30 00:06:09;;;;;;;;;;;;;;;5.03;63.57;99249.50;6353250;22;1308;-96
2021/12/30 00:11:18;;;;;;;;;;;;;;;5.06;63.33;99241.06;6347818;22;1896;-95
2021/12/30 00:13:45;;;;;;;;;;;;;;;5.07;63.38;99232.03;6349768;22;1387;-94
2021/12/30 00:16:12;;;;;;;;;;;;;;;5.08;63.35;99233.66;6352195;22;1419;-94
2021/12/30 00:18:38;;;;;;;;;;;;;;;5.08;63.29;99225.63;6349765;22;1336;-95
2021/12/30 00:21:19;;;;;;;;;;;;;;;5.11;63.25;99217.19;6351727;22;1281;-95
2021/12/30 00:23:49;;;;;;;;;;;;;;;5.11;nan;99216.38;6356037;22;1441;-96
2021/12/30 00:26:15;;;;;;;;;;;;;;;5.08;63.25;99224.81;6355936;22;958;-94
2021/12/30 00:28:42;;;;;;;;;;;;;;;5.10;63.28;99222.78;6351765;22;1295;-94
2021/12/30 00:31:08;;;;;;;;;;;;;;;5.08;63.40;99216.81;6349559;22;1924;-95
2021/12/30 00:33:41;;;;;;;;;;;;;;;5.10;63.30;99220.09;6352609;22;1318;-96
2021/12/30 00:36:11;;;;;;;;;;;;;;;5.09;63.38;99215.78;6352860;22;1606;-96
2021/12/30 00:38:39;;;;;;;;;;;;;;;5.09;63.38;99210.44;6355847;22;1239;-95
2021/12/30 00:41:07;;;;;;;;;;;;;;;5.06;63.48;99195.69;6359244;22;1324;-95
2021/12/30 00:43:33;;;;;;;;;;;;;;;5.06;63.41;99197.53;6358231;22;1276;-94
2021/12/30 00:46:00;;;;;;;;;;;;;;;5.09;63.26;99191.75;6357656;22;1446;-95
2021/12/30 00:48:28;;;;;;;;;;;;;;;5.07;63.41;99180.50;6354690;22;1297;-94
2021/12/30 00:50:54;;;;;;;;;;;;;;;5.07;63.55;99175.97;6351511;22;1919;-94
2021/12/30 00:53:21;;;;;;;;;;;;;;;5.12;63.27;99154.00;6350226;22;1374;-94
2021/12/30 00:55:48;;;;;;;;;;;;;;;5.12;63.01;99151.31;6355228;22;1328;-96
2021/12/30 00:58:14;;;;;;;;;;;;;;;5.10;63.16;99145.38;6357940;22;1401;-95
2021/12/30 01:00:41;;;;;;;;;;;;;;;5.11;63.31;99142.47;6357761;22;1249;-95
2021/12/30 01:03:08;;;;;;;;;;;;;;;5.13;63.35;99147.59;6360643;22;1542;-96
2021/12/30 01:05:34;;;;;;;;;;;;;;;5.14;63.18;99133.22;6344705;22;1309;-96
2021/12/30 01:08:02;;;;;;;;;;;;;;;5.14;63.16;99136.69;6342538;22;1162;-96
2021/12/30 01:10:29;;;;;;;;;;;;;;;5.14;63.18;99135.88;6342928;22;1944;-96
2021/12/30 01:12:56;;;;;;;;;;;;;;;5.13;63.21;99128.91;6344645;22;1276;-95
2021/12/30 01:15:32;;;;;;;;;;;;;;;5.15;63.28;99119.66;6343511;22;1343;-95
2021/12/30 01:18:21;;;;;;;;;;;;;;;5.15;63.13;99116.19;6344984;22;1584;-94
2021/12/30 01:20:45;;;;;;;;;;;;;;;5.16;63.19;99110.59;6344192;22;1439;-95
2021/12/30 01:23:12;;;;;;;;;;;;;;;5.16;63.08;99107.13;6345335;22;1474;-95
2021/12/30 01:25:39;;;;;;;;;;;;;;;5.13;63.37;99096.88;6345930;22;1409;-94
2021/12/30 01:28:05;;;;;;;;;;;;;;;5.17;63.26;99100.75;6345685;22;1260;-95
2021/12/30 01:30:32;;;;;;;;;;;;;;;5.18;63.10;99091.72;6344769;22;1946;-95
2021/12/30 01:32:58;;;;;;;;;;;;;;;5.18;63.18;99091.72;6347507;22;1146;-95
2021/12/30 01:35:26;;;;;;;;;;;;;;;5.18;63.20;99079.19;6343258;22;1206;-95
2021/12/30 01:37:53;;;;;;;;;;;;;;;5.17;63.21;99084.72;6345568;22;1274;-95
2021/12/30 01:40:20;;;;;;;;;;;;;;;5.17;63.09;99066.03;6345264;22;1090;-94
2021/12/30 01:42:50;;;;;;;;;;;;;;;5.19;63.21;99048.78;6345681;22;1267;-93
2021/12/30 01:45:16;;;;;;;;;;;;;;;5.19;63.33;99042.63;6345007;22;1427;-94
2021/12/30 01:47:50;;;;;;;;;;;;;;;5.19;63.24;99040.78;6345855;22;1256;-96
2021/12/30 01:50:16;;;;;;;;;;;;;;;5.21;63.08;99041.38;6346442;22;1114;-95
2021/12/30 01:52:43;;;;;;;;;;;;;;;5.19;63.14;99032.75;6346540;22;1885;-96
2021/12/30 01:55:09;;;;;;;;;;;;;;;5.22;63.38;99024.31;6346782;22;1345;-96
2021/12/30 01:57:36;;;;;;;;;;;;;;;5.22;63.27;99024.31;6346629;22;1264;-96
2021/12/30 02:00:02;;;;;;;;;;;;;;;5.22;63.16;99018.16;6346972;22;1330;-96
2021/12/30 02:02:28;;;;;;;;;;;;;;;5.22;63.30;99015.50;6347688;22;1349;-96
2021/12/30 02:04:55;;;;;;;;;;;;;;;5.26;63.00;99027.34;6345620;22;1309;-94
2021/12/30 02:07:22;;;;;;;;;;;;;;;5.23;63.23;99015.28;6344504;22;1171;-95
2021/12/30 02:09:50;;;;;;;;;;;;;;;5.25;63.25;99015.03;6345112;22;1245;-94
2021/12/30 02:12:16;;;;;;;;;;;;;;;5.23;63.00;99004.59;6344612;22;1928;-94
2021/12/30 02:14:42;;;;;;;;;;;;;;;5.24;63.29;99002.75;6343118;22;1145;-95
2021/12/30 02:17:09;;;;;;;;;;;;;;;5.24;63.12;99003.56;6345890;22;1301;-95
2021/12/30 02:19:36;;;;;;;;;;;;;;;5.28;63.03;99003.91;6344954;22;1150;-94
2021/12/30 02:22:02;;;;;;;;;;;;;;;5.29;62.92;98997.53;6342673;22;1251;-93
2021/12/30 02:24:28;;;;;;;;;;;;;;;5.29;62.99;98983.38;6346493;22;1242;-94
2021/12/30 02:26:55;;;;;;;;;;;;;;;5.28;63.08;98981.75;6345005;22;1379;-93
2021/12/30 02:29:21;;;;;;;;;;;;;;;5.28;63.08;98979.09;6345290;22;1249;-94
2021/12/30 02:31:48;;;;;;;;;;;;;;;5.27;63.28;98980.94;6346283;22;1917;-94
2021/12/30 02:34:16;;;;;;;;;;;;;;;5.31;63.14;98982.13;6343420;22;1260;-94
2021/12/30 02:36:42;;;;;;;;;;;;;;;5.30;63.07;98971.69;6345834;22;1224;-95
2021/12/30 02:39:09;;;;;;;;;;;;;;;5.29;63.15;98965.50;6344462;22;1149;-95
2021/12/30 02:41:37;;;;;;;;;;;;;;;5.30;63.23;98961.00;6341188;22;1234;-95
2021/12/30 02:44:04;;;;;;;;;;;;;;;5.30;63.28;98953.81;6340680;22;1291;-94
2021/12/30 02:46:30;;;;;;;;;;;;;;;5.30;63.01;98940.44;6340741;22;1246;-95
2021/12/30 02:48:56;;;;;;;;;;;;;;;5.30;63.28;98935.13;6342163;22;1304;-95
2021/12/30 02:51:23;;;;;;;;;;;;;;;5.28;63.39;98933.72;6345099;22;1900;-96
2021/12/30 02:53:49;;;;;;;;;;;;;;;5.28;63.20;98912.34;6341962;22;1136;-94
2021/12/30 02:56:16;;;;;;;;;;;;;;;5.24;63.30;98896.78;6345670;22;1368;-94
2021/12/30 02:58:42;;;;;;;;;;;;;;;5.25;63.34;98892.25;6343918;22;1310;-95
2021/12/30 03:01:09;;;;;;;;;;;;;;;5.27;63.17;98879.50;6345631;22;1282;-96
2021/12/30 03:03:35;;;;;;;;;;;;;;;5.27;63.35;98881.38;6347172;22;1276;-95
2021/12/30 03:06:01;;;;;;;;;;;;;;;5.29;63.20;98874.72;6346337;22;1309;-95
2021/12/30 03:08:28;;;;;;;;;;;;;;;5.29;63.39;98871.25;6343172;22;1232;-95
2021/12/30 03:10:54;;;;;;;;;;;;;;;5.29;63.81;98857.91;6342657;22;1947;-95
2021/12/30 03:13:29;;;;;;;;;;;;;;;5.28;63.30;98862.44;6344004;22;1251;-95
2021/12/30 03:15:56;;;;;;;;;;;;;;;5.27;63.30;98850.16;6343722;22;1256;-95
2021/12/30 03:18:22;;;;;;;;;;;;;;;5.23;63.30;98852.47;6344016;22;1362;-95
2021/12/30 03:20:49;;;;;;;;;;;;;;;5.23;63.17;98840.94;6343835;22;1179;-94
2021/12/30 03:23:16;;;;;;;;;;;;;;;5.27;63.34;98836.00;6343990;22;1241;-94
2021/12/30 03:25:42;;;;;;;;;;;;;;;5.28;63.14;98821.59;6341270;22;1087;-94
2021/12/30 03:28:09;;;;;;;;;;;;;;;5.28;63.30;98814.38;6342802;22;1430;-95
2021/12/30 03:30:35;;;;;;;;;;;;;;;5.24;63.42;98797.22;6342392;22;1162;-95
2021/12/30 03:33:01;;;;;;;;;;;;;;;5.22;63.27;98791.28;6343746;22;1935;-95
2021/12/30 03:35:28;;;;;;;;;;;;;;;5.26;63.41;98784.44;6342772;22;1285;-95
2021/12/30 03:37:55;;;;;;;;;;;;;;;5.26;63.44;98780.94;6342749;22;1264;-95
2021/12/30 03:40:22;;;;;;;;;;;;;;;5.26;63.38;98768.41;6341699;22;1687;-95
2021/12/30 03:42:49;;;;;;;;;;;;;;;5.26;63.35;98765.75;6343925;22;1174;-94
2021/12/30 03:45:15;;;;;;;;;;;;;;;5.25;63.41;98766.78;6343083;22;1137;-94
2021/12/30 03:47:43;;;;;;;;;;;;;;;5.23;63.45;98756.38;6343238;22;1225;-94
2021/12/30 03:50:09;;;;;;;;;;;;;;;5.25;63.59;98761.47;6342591;22;1220;-94
2021/12/30 03:52:38;;;;;;;;;;;;;;;5.23;63.32;98771.53;6341416;22;1904;-95
2021/12/30 03:55:04;;;;;;;;;;;;;;;5.24;63.44;98789.22;6342239;22;1344;-94
2021/12/30 03:57:31;;;;;;;;;;;;;;;5.25;63.57;98793.50;6340929;22;1237;-94
2021/12/30 03:59:57;;;;;;;;;;;;;;;5.26;63.48;98795.09;6339909;22;1142;-96
2021/12/30 04:02:24;;;;;;;;;;;;;;;5.26;63.46;98794.31;6342835;22;1150;-95
2021/12/30 04:04:50;;;;;;;;;;;;;;;5.23;63.41;98795.56;6343376;22;1261;-96
2021/12/30 04:07:16;;;;;;;;;;;;;;;5.22;63.83;98785.94;6342240;22;1246;-94
2021/12/30 04:09:43;;;;;;;;;;;;;;;5.21;63.46;98782.47;6344176;22;1395;-96
2021/12/30 04:12:09;;;;;;;;;;;;;;;5.23;63.71;98774.22;6348101;22;1896;-95
2021/12/30 04:14:36;;;;;;;;;;;;;;;5.23;63.49;98771.53;6346639;22;1401;-95
2021/12/30 04:17:02;;;;;;;;;;;;;;;5.28;63.29;98768.19;6349020;22;1260;-95
2021/12/30 04:19:32;;;;;;;;;;;;;;;5.27;63.38;98767.41;6347234;22;1274;-94
2021/12/30 04:21:58;;;;;;;;;;;;;;;5.26;63.39;98772.94;6347285;22;1178;-92
2021/12/30 04:24:25;;;;;;;;;;;;;;;5.23;63.51;98776.88;6347186;22;1324;-94
2021/12/30 04:26:51;;;;;;;;;;;;;;;5.24;63.42;98779.34;6344247;22;1271;-94
2021/12/30 04:29:18;;;;;;;;;;;;;;;5.24;63.55;98783.88;6343512;22;1140;-95
2021/12/30 04:31:44;;;;;;;;;;;;;;;5.28;63.42;98777.03;6345888;22;1900;-94
2021/12/30 04:34:11;;;;;;;;;;;;;;;5.28;63.32;98755.66;6347056;22;1260;-94
2021/12/30 04:36:37;;;;;;;;;;;;;;;5.29;63.39;98740.47;6346401;22;1255;-93
2021/12/30 04:39:04;;;;;;;;;;;;;;;5.26;63.33;98728.38;6347980;22;1301;-96
2021/12/30 04:41:30;;;;;;;;;;;;;;;5.27;63.42;98718.53;6351708;22;1161;-94
2021/12/30 04:43:57;;;;;;;;;;;;;;;5.26;63.38;98711.56;6344461;22;1142;-96
2021/12/30 04:46:24;;;;;;;;;;;;;;;5.24;63.66;98685.91;6343757;22;1243;-94
2021/12/30 04:48:50;;;;;;;;;;;;;;;5.23;63.35;98692.31;6343006;22;1201;-93
2021/12/30 04:51:17;;;;;;;;;;;;;;;5.26;63.54;98696.34;6344877;22;1190;-95
2021/12/30 04:53:43;;;;;;;;;;;;;;;5.23;63.46;98689.63;6346254;22;1157;-94
2021/12/30 04:56:10;;;;;;;;;;;;;;;5.23;63.69;98673.63;6346440;22;1290;-95
2021/12/30 04:58:36;;;;;;;;;;;;;;;5.27;63.58;98684.66;6346014;22;1209;-96
2021/12/30 05:01:02;;;;;;;;;;;;;;;5.28;63.56;98704.13;6346666;22;1250;-95
2021/12/30 05:03:29;;;;;;;;;;;;;;;5.28;63.40;98709.47;6345890;22;1231;-94
2021/12/30 05:05:55;;;;;;;;;;;;;;;5.28;63.42;98704.13;6343884;22;1273;-95
2021/12/30 05:08:22;;;;;;;;;;;;;;;5.22;63.52;98693.34;6347150;22;1309;-94
2021/12/30 05:10:48;;;;;;;;;;;;;;;5.23;63.91;98691.47;6344794;22;1550;-95
2021/12/30 05:13:15;;;;;;;;;;;;;;;5.22;63.75;98673.84;6345736;22;1872;-95
2021/12/30 05:15:41;;;;;;;;;;;;;;;5.23;63.63;98662.09;6343564;22;1360;-94
2021/12/30 05:18:08;;;;;;;;;;;;;;;5.23;63.61;98649.59;6345053;22;1169;-94
2021/12/30 05:20:34;;;;;;;;;;;;;;;5.22;63.64;98631.13;6341032;22;1341;-94
2021/12/30 05:23:01;;;;;;;;;;;;;;;5.20;63.64;98615.34;6350750;22;1302;-95
2021/12/30 05:25:27;;;;;;;;;;;;;;;5.20;63.66;98610.00;6348521;22;1170;-94
2021/12/30 05:27:54;;;;;;;;;;;;;;;5.22;63.71;98605.25;6351938;22;1181;-95
2021/12/30 05:30:23;;;;;;;;;;;;;;;5.23;63.64;98600.72;6349624;22;1352;-94
2021/12/30 05:32:51;;;;;;;;;;;;;;;5.21;63.67;98600.16;6349967;22;1926;-96
2021/12/30 05:35:18;;;;;;;;;;;;;;;5.19;63.72;98615.59;6321695;22;1427;-95
2021/12/30 05:37:44;;;;;;;;;;;;;;;5.20;63.63;98622.53;6353420;22;1259;-95
2021/12/30 05:40:11;;;;;;;;;;;;;;;5.20;63.85;98618.00;6349465;22;1395;-95
2021/12/30 05:42:37;;;;;;;;;;;;;;;5.18;63.85;98628.13;6349737;22;1257;-96
2021/12/30 05:45:04;;;;;;;;;;;;;;;5.19;63.67;98613.72;6348923;22;1321;-95
2021/12/30 05:47:31;;;;;;;;;;;;;;;5.21;63.59;98610.84;6346158;22;1233;-94
2021/12/30 05:49:57;;;;;;;;;;;;;;;5.19;63.66;98600.38;6347560;22;1283;-94
2021/12/30 05:52:24;;;;;;;;;;;;;;;5.18;63.62;98593.44;6349236;22;1942;-96
2021/12/30 05:54:50;;;;;;;;;;;;;;;5.20;63.86;98590.50;6349474;22;1339;-95
2021/12/30 05:57:17;;;;;;;;;;;;;;;5.20;63.62;98583.31;6349706;22;1281;-94
2021/12/30 05:59:46;;;;;;;;;;;;;;;5.20;63.64;98572.63;6348194;22;1295;-94
2021/12/30 06:02:14;;;;;;;;;;;;;;;5.21;63.52;98568.13;6345983;22;1263;-95
2021/12/30 06:04:42;;;;;;;;;;;;;;;5.21;63.54;98563.59;6350300;22;1273;-96
2021/12/30 06:07:11;;;;;;;;;;;;;;;5.20;63.59;98553.94;6351862;22;1284;-95
2021/12/30 06:09:39;;;;;;;;;;;;;;;5.20;63.73;98553.16;6352617;22;1181;-95
2021/12/30 06:12:06;;;;;;;;;;;;;;;5.22;63.70;98551.88;6354281;22;1936;-95
2021/12/30 06:14:32;;;;;;;;;;;;;;;5.22;63.55;98551.06;6350009;22;1129;-95
2021/12/30 06:16:59;;;;;;;;;;;;;;;5.20;63.45;98550.47;6350788;22;1210;-94
2021/12/30 06:19:25;;;;;;;;;;;;;;;5.21;64.00;98544.13;6350377;22;1224;-95
2021/12/30 06:21:52;;;;;;;;;;;;;;;5.20;63.67;98555.81;6348977;22;1305;-95
2021/12/30 06:24:18;;;;;;;;;;;;;;;5.21;63.64;98558.25;6353739;22;1355;-95
2021/12/30 06:26:45;;;;;;;;;;;;;;;5.21;63.65;98549.44;6348786;22;1342;-95
2021/12/30 06:29:11;;;;;;;;;;;;;;;5.20;63.69;98542.47;6350417;22;1368;-95
2021/12/30 06:31:47;;;;;;;;;;;;;;;5.19;63.68;98541.66;6355125;22;1487;-94
2021/12/30 06:34:13;;;;;;;;;;;;;;;5.18;63.86;98533.91;6355119;22;1140;-96
2021/12/30 06:36:41;;;;;;;;;;;;;;;5.20;63.80;98527.25;6352246;22;1166;-93
2021/12/30 06:39:08;;;;;;;;;;;;;;;5.20;63.55;98534.47;6354832;22;1205;-95
2021/12/30 06:41:37;;;;;;;;;;;;;;;5.20;63.71;98529.13;6354538;22;1251;-93
2021/12/30 06:44:03;;;;;;;;;;;;;;;5.20;63.75;98532.59;6353299;22;1310;-94
2021/12/30 06:46:29;;;;;;;;;;;;;;;5.19;63.72;98531.00;6352159;22;1145;-94
2021/12/30 06:48:56;;;;;;;;;;;;;;;5.20;63.80;98540.59;6347718;22;1258;-95
2021/12/30 06:51:24;;;;;;;;;;;;;;;5.19;63.79;98536.31;6351721;22;1418;-96
2021/12/30 06:53:51;;;;;;;;;;;;;;;5.20;63.84;98531.78;6350988;22;1924;-96
2021/12/30 06:56:17;;;;;;;;;;;;;;;5.19;63.75;98519.50;6352160;22;1345;-95
2021/12/30 06:58:44;;;;;;;;;;;;;;;5.18;63.77;98537.38;6349519;22;1428;-95
2021/12/30 07:01:10;;;;;;;;;;;;;;;5.17;63.98;98534.94;6351320;22;1253;-95
2021/12/30 07:03:37;;;;;;;;;;;;;;;5.19;63.72;98528.31;6351301;22;1245;-96
2021/12/30 07:06:04;;;;;;;;;;;;;;;5.17;63.81;98519.72;6352115;22;1172;-96
2021/12/30 07:08:30;;;;;;;;;;;;;;;5.18;63.69;98536.56;6353093;22;1165;-95
2021/12/30 07:10:57;;;;;;;;;;;;;;;5.19;63.79;98524.84;6353362;22;1150;-95
2021/12/30 07:13:23;;;;;;;;;;;;;;;5.17;63.74;98514.38;6352423;22;1896;-96
2021/12/30 07:15:50;;;;;;;;;;;;;;;5.16;63.73;98515.44;6351382;22;1259;-95
2021/12/30 07:18:16;;;;;;;;;;;;;;;5.17;63.91;98502.91;6352138;22;1099;-96
2021/12/30 07:20:43;;;;;;;;;;;;;;;5.19;63.85;98508.84;6352969;22;1193;-96
2021/12/30 07:23:09;;;;;;;;;;;;;;;5.18;64.00;98509.88;6353767;22;1320;-95
2021/12/30 07:25:36;;;;;;;;;;;;;;;5.16;63.94;98509.31;6351307;22;1290;-96
2021/12/30 07:28:03;;;;;;;;;;;;;;;5.17;63.98;98497.56;6349328;22;1149;-94
2021/12/30 07:30:30;;;;;;;;;;;;;;;5.16;63.92;98486.09;6356655;22;1248;-93
2021/12/30 07:32:56;;;;;;;;;;;;;;;5.14;64.05;98482.03;6355549;22;1937;-95
2021/12/30 07:35:23;;;;;;;;;;;;;;;5.13;64.08;98491.91;6353310;22;1242;-95
2021/12/30 07:37:49;;;;;;;;;;;;;;;5.14;64.02;98493.50;6353577;22;1152;-96
2021/12/30 07:40:16;;;;;;;;;;;;;;;5.13;63.99;98496.44;6354115;22;1358;-95
2021/12/30 07:42:43;;;;;;;;;;;;;;;5.12;64.02;98502.81;6350449;22;1319;-93
2021/12/30 07:45:09;;;;;;;;;;;;;;;5.14;63.90;98498.03;6350461;22;1284;-95
2021/12/30 07:47:36;;;;;;;;;;;;;;;5.15;63.83;98502.34;6350445;22;1360;-94
2021/12/30 07:50:03;;;;;;;;;;;;;;;5.15;63.87;98507.69;6351054;22;1217;-95
2021/12/30 07:52:30;;;;;;;;;;;;;;;5.15;63.96;98505.03;6353536;22;1881;-95
2021/12/30 07:54:56;;;;;;;;;;;;;;;5.14;63.97;98496.19;6353315;22;1392;-96
2021/12/30 07:57:26;;;;;;;;;;;;;;;5.14;63.89;98493.50;6348812;22;1336;-96
2021/12/30 07:59:55;;;;;;;;;;;;;;;5.16;63.91;98494.09;6350451;22;1260;-96
2021/12/30 08:02:23;;;;;;;;;;;;;;;5.17;63.80;98486.91;6346567;22;1260;-94
2021/12/30 08:04:51;;;;;;;;;;;;;;;5.16;63.78;98494.09;6353757;22;1160;-96
2021/12/30 08:07:21;;;;;;;;;;;;;;;5.15;63.76;98491.69;6351410;22;1266;-95
2021/12/30 08:09:48;;;;;;;;;;;;;;;5.17;63.89;98479.69;6345242;22;1209;-94
2021/12/30 08:12:14;;;;;;;;;;;;;;;5.17;63.93;98470.88;6352945;22;1896;-95
2021/12/30 08:14:41;;;;;;;;;;;;;;;5.16;63.88;98470.06;6350551;22;1167;-95
2021/12/30 08:17:10;;;;;;;;;;;;;;;5.15;63.70;98470.31;6359405;22;1383;-96
2021/12/30 08:19:38;;;;;;;;;;;;;;;5.16;63.94;98464.75;6360037;22;1178;-96
2021/12/30 08:22:08;;;;;;;;;;;;;;;5.16;63.82;98471.94;6359219;22;1308;-96
2021/12/30 08:24:35;;;;;;;;;;;;;;;5.15;63.93;98468.47;6353992;22;1317;-94
2021/12/30 08:27:02;;;;;;;;;;;;;;;5.15;63.81;98471.13;6360735;22;1431;-96
2021/12/30 08:29:31;;;;;;;;;;;;;;;5.14;63.96;98477.50;6362053;22;1636;-96
2021/12/30 08:32:35;;;;;;;;;;;;;;;5.15;63.77;98468.47;6361224;22;1873;-95
2021/12/30 08:35:02;;;;;;;;;;;;;;;5.15;63.87;98471.13;6354417;22;1225;-96
2021/12/30 08:37:28;;;;;;;;;;;;;;;5.16;63.78;98480.75;6355014;22;1246;-96
2021/12/30 08:40:01;;;;;;;;;;;;;;;5.16;63.89;98483.41;6357083;22;1064;-95
2021/12/30 08:42:29;;;;;;;;;;;;;;;5.13;63.92;98472.41;6355614;22;1309;-95
2021/12/30 08:56:56;;;;;;;;;;;;;;;5.14;64.02;98472.16;6368205;22;1180;-96
2021/12/30 09:00:09;;;;;;;;;;;;;;;5.13;63.95;98496.44;6397378;22;1204;-96
2021/12/30 09:14:50;;;;;;;;;;;;;;;5.13;63.97;98491.91;6213411;23;1360;-96
2021/12/30 09:17:36;;;;;;;;;;;;;;;5.15;63.98;98497.00;6214426;23;1466;-95
2021/12/30 09:23:11;;;;;;;;;;;;;;;5.12;63.94;98498.28;6227299;23;942;-94
2021/12/30 09:28:25;;;;;;;;;;;;;;;5.09;63.92;98498.75;6210868;23;1473;-95
2021/12/30 09:30:51;;;;;;;;;;;;;;;5.12;64.00;98498.28;6211148;23;1258;-94
2021/12/30 09:33:19;;;;;;;;;;;;;;;5.12;63.87;98500.16;6236033;23;1893;-95
2021/12/30 09:35:47;;;;;;;;;;;;;;;5.13;63.96;98528.44;6251510;22;1378;-95
2021/12/30 09:38:40;;;;;;;;;;;;;;;5.09;64.04;98528.09;6379369;22;631;-94
2021/12/30 09:44:13;;;;;;;;;;;;;;;5.11;64.04;98517.19;6387646;22;785;-94
2021/12/30 09:46:43;;;;;;;;;;;;;;;5.10;64.04;98507.56;6355844;22;1239;-95
2021/12/30 09:49:17;;;;;;;;;;;;;;;5.10;63.88;98502.22;6362195;22;1226;-95
2021/12/30 09:51:43;;;;;;;;;;;;;;;5.08;64.20;98502.44;6361322;22;1245;-95
2021/12/30 09:54:10;;;;;;;;;;;;;;;5.08;64.03;98488.31;6355474;22;1942;-95
2021/12/30 09:56:36;;;;;;;;;;;;;;;5.08;64.08;98486.44;6355509;22;1327;-94
2021/12/30 09:59:03;;;;;;;;;;;;;;;5.07;64.11;98497.38;6354901;22;1266;-95
2021/12/30 10:01:30;;;;;;;;;;;;;;;5.08;64.09;98502.44;6356340;22;1387;-95
2021/12/30 10:03:57;;;;;;;;;;;;;;;5.08;64.08;98504.31;6351420;22;1200;-94
2021/12/30 10:06:23;;;;;;;;;;;;;;;5.09;64.08;98506.75;6352660;22;1141;-96
2021/12/30 10:08:51;;;;;;;;;;;;;;;5.09;64.07;98498.75;6357654;22;1146;-95
2021/12/30 10:11:18;;;;;;;;;;;;;;;5.08;64.05;98504.31;6348405;22;1260;-96
2021/12/30 10:13:45;;;;;;;;;;;;;;;5.09;64.02;98501.44;6345815;22;1942;-96
2021/12/30 10:16:15;;;;;;;;;;;;;;;5.11;63.86;98501.19;6349905;22;1292;-93
2021/12/30 10:18:42;;;;;;;;;;;;;;;5.11;63.91;98490.50;6350482;22;1364;-95
2021/12/30 10:21:09;;;;;;;;;;;;;;;5.07;64.05;98487.50;6349752;22;1375;-94
2021/12/30 10:23:36;;;;;;;;;;;;;;;5.08;64.29;98509.66;6350021;22;1238;-95
2021/12/30 10:26:02;;;;;;;;;;;;;;;5.09;63.91;98509.44;6344221;22;1581;-94
2021/12/30 10:28:30;;;;;;;;;;;;;;;5.10;63.98;98502.22;6347657;22;1322;-94
2021/12/30 10:30:56;;;;;;;;;;;;;;;5.09;64.08;98498.75;6343535;22;1157;-95
2021/12/30 10:33:23;;;;;;;;;;;;;;;5.07;64.08;98498.16;6346847;22;1912;-94
2021/12/30 10:35:49;;;;;;;;;;;;;;;5.07;63.98;98492.03;6345027;22;1228;-93
2021/12/30 10:38:16;;;;;;;;;;;;;;;5.06;64.03;98487.72;6343697;22;1404;-94
2021/12/30 10:40:42;;;;;;;;;;;;;;;5.06;63.98;98483.22;6345359;22;1163;-95
2021/12/30 10:43:10;;;;;;;;;;;;;;;5.05;64.29;98486.09;6345461;22;1241;-96
2021/12/30 10:45:36;;;;;;;;;;;;;;;5.08;64.03;98473.09;6344965;22;1234;-95
2021/12/30 10:48:03;;;;;;;;;;;;;;;5.09;63.91;98485.41;6343171;22;1376;-94
2021/12/30 10:50:29;;;;;;;;;;;;;;;5.07;63.78;98481.34;6344821;22;1224;-96
2021/12/30 10:52:56;;;;;;;;;;;;;;;5.07;64.07;98481.34;6345928;22;1956;-94
2021/12/30 10:55:22;;;;;;;;;;;;;;;5.05;64.17;98464.75;6343813;22;1466;-94
2021/12/30 10:57:48;;;;;;;;;;;;;;;5.03;64.17;98467.69;6342834;22;1128;-95
2021/12/30 11:00:15;;;;;;;;;;;;;;;5.04;64.10;98460.47;6343276;22;1241;-96
2021/12/30 11:02:41;;;;;;;;;;;;;;;5.04;64.14;98452.47;6343745;22;1522;-95
2021/12/30 11:05:11;;;;;;;;;;;;;;;5.04;64.20;98445.28;6342747;22;1175;-96
2021/12/30 11:07:37;;;;;;;;;;;;;;;5.03;64.17;98435.66;6345166;22;1334;-94
2021/12/30 11:10:07;;;;;;;;;;;;;;;5.03;64.14;98430.31;6343953;22;1324;-94
2021/12/30 11:12:33;;;;;;;;;;;;;;;5.04;64.20;98431.13;6339959;22;1166;-94
2021/12/30 11:15:05;;;;;;;;;;;;;;;5.01;64.37;98427.06;6338281;22;1951;-93
2021/12/30 11:17:34;;;;;;;;;;;;;;;5.03;64.28;98416.16;6340769;22;1274;-93
2021/12/30 11:20:00;;;;;;;;;;;;;;;5.04;64.29;98431.13;6341610;22;1122;-93
2021/12/30 11:22:27;;;;;;;;;;;;;;;5.03;64.05;98434.81;6341820;22;1347;-95
2021/12/30 11:24:53;;;;;;;;;;;;;;;5.04;64.23;98452.47;6340134;22;1150;-94
2021/12/30 11:27:20;;;;;;;;;;;;;;;5.02;64.19;98444.69;6347171;22;1318;-93
2021/12/30 11:29:46;;;;;;;;;;;;;;;5.03;64.16;98438.31;6331452;22;1330;-95
2021/12/30 11:32:13;;;;;;;;;;;;;;;5.05;64.03;98441.56;6341731;22;1350;-95
2021/12/30 11:34:39;;;;;;;;;;;;;;;5.05;64.00;98425.53;6343742;22;1939;-94
2021/12/30 11:37:06;;;;;;;;;;;;;;;5.03;64.11;98422.31;6338933;22;1228;-95
2021/12/30 11:39:32;;;;;;;;;;;;;;;5.06;64.07;98437.84;6339493;22;1193;-95
2021/12/30 11:41:58;;;;;;;;;;;;;;;5.05;64.00;98440.75;6341533;22;1343;-95
2021/12/30 11:44:26;;;;;;;;;;;;;;;5.05;63.87;98465.56;6341731;22;1067;-96
2021/12/30 11:46:52;;;;;;;;;;;;;;;5.05;63.83;98451.41;6342109;22;1333;-94
2021/12/30 11:49:18;;;;;;;;;;;;;;;5.05;64.08;98454.09;6339037;22;1143;-95
2021/12/30 11:51:45;;;;;;;;;;;;;;;5.06;64.03;98455.69;6340576;22;1201;-94
2021/12/30 11:54:11;;;;;;;;;;;;;;;5.03;64.03;98453.50;6342040;22;1896;-95
2021/12/30 11:56:38;;;;;;;;;;;;;;;5.07;63.98;98452.00;6344560;22;1346;-95
2021/12/30 11:59:04;;;;;;;;;;;;;;;5.03;64.13;98450.84;6345797;22;1212;-94
2021/12/30 12:01:31;;;;;;;;;;;;;;;5.05;64.00;98441.56;6345958;22;1134;-94
2021/12/30 12:03:58;;;;;;;;;;;;;;;5.05;64.00;98422.88;6344327;22;1308;-95
2021/12/30 12:06:24;;;;;;;;;;;;;;;5.05;63.92;98432.75;6345026;22;1152;-94
2021/12/30 12:08:51;;;;;;;;;;;;;;;5.06;63.87;98426.34;6346066;22;1173;-94
2021/12/30 12:11:17;;;;;;;;;;;;;;;5.04;63.82;98417.78;6345923;22;1121;-93
2021/12/30 12:13:44;;;;;;;;;;;;;;;5.05;63.87;98430.06;6343897;22;1900;-94
2021/12/30 12:16:10;;;;;;;;;;;;;;;5.04;64.08;98428.47;6346758;22;1256;-95
2021/12/30 12:18:37;;;;;;;;;;;;;;;5.03;64.19;98429.50;6343673;22;1203;-93
2021/12/30 12:21:03;;;;;;;;;;;;;;;5.03;63.97;98421.47;6345130;22;1306;-93
2021/12/30 12:23:30;;;;;;;;;;;;;;;5.04;63.99;98420.47;6342838;22;1332;-95
2021/12/30 12:25:57;;;;;;;;;;;;;;;5.02;64.03;98428.69;6343266;22;1248;-92
2021/12/30 12:28:23;;;;;;;;;;;;;;;5.04;64.11;98425.78;6346755;22;1281;-95
2021/12/30 12:30:49;;;;;;;;;;;;;;;5.04;63.95;98423.13;6342117;22;1252;-94
2021/12/30 12:33:16;;;;;;;;;;;;;;;5.02;63.94;98423.34;6344791;22;1896;-94
2021/12/30 12:35:42;;;;;;;;;;;;;;;5.01;64.18;98411.06;6342349;22;1354;-95
2021/12/30 12:38:09;;;;;;;;;;;;;;;5.03;64.07;98421.47;6347319;22;1271;-95
2021/12/30 12:40:36;;;;;;;;;;;;;;;5.03;64.05;98413.47;6345736;22;1298;-95
2021/12/30 12:43:02;;;;;;;;;;;;;;;5.03;63.76;98422.31;6346076;22;1301;-93
2021/12/30 12:45:29;;;;;;;;;;;;;;;5.02;64.14;98420.69;6344957;22;1337;-95
2021/12/30 12:47:55;;;;;;;;;;;;;;;5.03;63.82;98422.31;6345758;22;1264;-92
2021/12/30 12:50:22;;;;;;;;;;;;;;;5.02;64.07;98436.69;6342273;22;1344;-94
2021/12/30 12:52:48;;;;;;;;;;;;;;;5.02;63.91;98423.34;6342283;22;1281;-94
2021/12/30 12:55:15;;;;;;;;;;;;;;;5.02;64.04;98434.03;6341486;22;1939;-94
2021/12/30 12:57:42;;;;;;;;;;;;;;;5.01;64.06;98440.41;6344474;22;1140;-94
2021/12/30 13:00:08;;;;;;;;;;;;;;;5.00;64.28;98436.13;6343816;22;1242;-95
2021/12/30 13:02:34;;;;;;;;;;;;;;;5.00;64.04;98439.59;6341466;22;1252;-94
2021/12/30 13:05:01;;;;;;;;;;;;;;;4.99;64.28;98451.31;6342913;22;1482;-95
2021/12/30 13:07:28;;;;;;;;;;;;;;;5.01;64.08;98433.22;6342429;22;1232;-92
2021/12/30 13:09:54;;;;;;;;;;;;;;;5.00;64.20;98425.47;6341782;22;1138;-92
2021/12/30 13:12:21;;;;;;;;;;;;;;;5.00;64.10;98420.94;6344560;22;1131;-95
2021/12/30 13:14:48;;;;;;;;;;;;;;;4.99;64.09;98429.16;6343877;22;1904;-93
2021/12/30 13:17:14;;;;;;;;;;;;;;;5.00;64.04;98426.25;6345763;22;1162;-95
2021/12/30 13:19:40;;;;;;;;;;;;;;;4.99;64.27;98437.16;6344263;22;1238;-92
2021/12/30 13:22:07;;;;;;;;;;;;;;;5.00;64.37;98439.59;6346748;22;1470;-96
2021/12/30 13:24:43;;;;;;;;;;;;;;;4.98;64.03;98443.53;6352175;22;1169;-95
2021/12/30 13:27:09;;;;;;;;;;;;;;;4.98;64.15;98455.03;6345418;22;1122;-95
2021/12/30 13:29:35;;;;;;;;;;;;;;;4.99;64.05;98469.97;6346420;22;1364;-93
2021/12/30 13:32:02;;;;;;;;;;;;;;;4.98;64.23;98457.69;6346438;22;1240;-93
2021/12/30 13:34:28;;;;;;;;;;;;;;;4.99;64.19;98469.97;6345997;22;1897;-94
2021/12/30 13:36:57;;;;;;;;;;;;;;;5.00;64.12;98479.63;6345144;22;1224;-95
2021/12/30 13:39:23;;;;;;;;;;;;;;;4.98;64.12;98476.38;6346933;22;1170;-93
2021/12/30 13:41:50;;;;;;;;;;;;;;;4.97;64.31;98465.91;6347099;22;1165;-94
2021/12/30 13:44:17;;;;;;;;;;;;;;;4.97;64.22;98464.09;6345543;22;1487;-93